createdAt,value
2023-01-19T00:01:07.030Z,2.97
2023-01-19T00:03:37.137Z,2.96
2023-01-19T00:06:07.508Z,2.97
2023-01-19T00:08:37.042Z,2.98
2023-01-19T00:11:06.345Z,2.98
2023-01-19T00:13:35.251Z,2.96
2023-01-19T00:16:04.528Z,2.96
2023-01-19T00:18:35.377Z,2.98
2023-01-19T00:21:04.739Z,2.98
2023-01-19T00:23:33.611Z,2.97
2023-01-19T00:26:02.795Z,2.99
2023-01-19T00:28:31.740Z,3.00
2023-01-19T00:31:00.982Z,3.00
2023-01-19T00:33:31.053Z,2.98
2023-01-19T00:36:01.695Z,2.98
2023-01-19T00:38:30.462Z,2.92
2023-01-19T00:40:59.603Z,2.96
2023-01-19T00:43:28.531Z,2.95
2023-01-19T00:45:57.741Z,2.93
2023-01-19T00:48:26.752Z,2.93
2023-01-19T00:50:55.945Z,2.95
2023-01-19T00:53:26.372Z,2.96
2023-01-19T00:55:56.137Z,2.98
2023-01-19T00:58:25.019Z,2.95
2023-01-19T01:00:57.529Z,2.96
2023-01-19T01:03:28.179Z,2.99
2023-01-19T01:05:58.073Z,3.00
2023-01-19T01:08:28.415Z,3.02
2023-01-19T01:10:58.249Z,2.97
2023-01-19T01:13:28.111Z,2.97
2023-01-19T01:15:58.118Z,2.94
2023-01-19T01:18:27.189Z,2.94
2023-01-19T01:21:02.848Z,2.95
2023-01-19T01:23:35.674Z,2.95
2023-01-19T01:26:05.762Z,2.97
2023-01-19T01:28:34.606Z,2.98
2023-01-19T01:31:03.796Z,2.94
2023-01-19T01:33:40.638Z,2.93
2023-01-19T01:36:11.955Z,2.91
2023-01-19T01:38:42.825Z,2.85
2023-01-19T01:41:13.375Z,2.85
2023-01-19T01:43:46.512Z,2.91
2023-01-19T01:46:17.302Z,2.91
2023-01-19T01:48:53.040Z,2.92
2023-01-19T01:51:26.967Z,2.92
2023-01-19T01:54:09.637Z,2.91
2023-01-19T01:56:41.350Z,2.91
2023-01-19T01:59:26.126Z,2.89
2023-01-19T02:02:15.530Z,2.87
2023-01-19T02:04:50.128Z,2.85
2023-01-19T02:07:42.607Z,2.82
2023-01-19T02:10:30.811Z,2.81
2023-01-19T02:13:18.514Z,2.81
2023-01-19T02:15:48.314Z,2.83
2023-01-19T02:18:17.708Z,2.85
2023-01-19T02:20:54.889Z,2.89
2023-01-19T02:23:43.013Z,2.87
2023-01-19T02:26:14.509Z,2.89
2023-01-19T02:28:48.366Z,2.86
2023-01-19T02:31:17.708Z,2.84
2023-01-19T02:33:46.984Z,2.81
2023-01-19T02:36:19.054Z,2.84
2023-01-19T02:38:52.187Z,2.85
2023-01-19T02:41:23.825Z,2.85
2023-01-19T02:43:53.874Z,2.85
2023-01-19T02:46:22.874Z,2.86
2023-01-19T02:48:52.332Z,2.85
2023-01-19T02:51:25.063Z,2.85
2023-01-19T02:54:30.093Z,2.85
2023-01-19T02:57:14.014Z,2.85
2023-01-19T02:59:58.337Z,2.84
2023-01-19T03:02:37.186Z,2.81
2023-01-19T03:05:23.002Z,2.82
2023-01-19T03:08:00.128Z,2.79
2023-01-19T03:10:40.479Z,2.77
2023-01-19T03:13:15.966Z,2.71
2023-01-19T03:15:50.774Z,2.72
2023-01-19T03:18:24.470Z,2.69
2023-01-19T03:20:57.014Z,2.78
2023-01-19T03:23:30.210Z,2.79
2023-01-19T03:26:02.741Z,2.79
2023-01-19T03:28:33.188Z,2.78
2023-01-19T03:31:07.982Z,2.73
2023-01-19T03:33:40.496Z,2.71
2023-01-19T03:36:15.895Z,2.72
2023-01-19T03:38:47.530Z,2.65
2023-01-19T03:41:20.659Z,2.64
2023-01-19T03:43:53.037Z,2.66
2023-01-19T03:46:24.503Z,2.66
2023-01-19T03:48:54.290Z,2.65
2023-01-19T03:51:23.929Z,2.64
2023-01-19T03:53:52.826Z,2.62
2023-01-19T03:56:24.952Z,2.61
2023-01-19T03:58:56.173Z,2.63
2023-01-19T04:01:25.782Z,2.65
2023-01-19T04:03:55.147Z,2.67
2023-01-19T04:06:24.425Z,2.68
2023-01-19T04:08:57.172Z,2.69
2023-01-19T04:11:29.922Z,2.70
2023-01-19T04:13:58.946Z,2.71
2023-01-19T04:16:29.108Z,2.73
2023-01-19T04:18:58.227Z,2.73
2023-01-19T04:21:27.502Z,2.71
2023-01-19T04:23:56.415Z,2.72
2023-01-19T04:26:25.571Z,2.74
2023-01-19T04:28:55.914Z,2.73
2023-01-19T04:31:25.156Z,2.72
2023-01-19T04:33:54.016Z,2.76
2023-01-19T04:36:23.282Z,2.76
2023-01-19T04:38:52.147Z,2.75
2023-01-19T04:41:21.448Z,2.77
2023-01-19T04:43:50.447Z,2.76
2023-01-19T04:46:21.019Z,2.76
2023-01-19T04:48:49.743Z,2.72
2023-01-19T04:51:19.011Z,2.70
2023-01-19T04:53:48.067Z,2.70
2023-01-19T04:56:17.216Z,2.67
2023-01-19T04:58:46.224Z,2.61
2023-01-19T05:01:15.447Z,2.59
2023-01-19T05:03:45.799Z,2.56
2023-01-19T05:06:15.147Z,2.50
2023-01-19T05:08:45.480Z,2.43
2023-01-19T05:11:14.837Z,2.34
2023-01-19T05:13:43.731Z,2.32
2023-01-19T05:16:14.030Z,2.26
2023-01-19T05:18:44.489Z,2.24
2023-01-19T05:21:13.718Z,2.19
2023-01-19T05:23:42.603Z,2.12
2023-01-19T05:26:11.880Z,2.08
2023-01-19T05:28:40.730Z,2.06
2023-01-19T05:31:10.037Z,2.06
2023-01-19T05:33:39.023Z,2.03
2023-01-19T05:36:10.013Z,1.99
2023-01-19T05:38:38.945Z,1.94
2023-01-19T05:41:08.169Z,1.92
2023-01-19T05:43:37.206Z,1.90
2023-01-19T05:46:06.701Z,1.90
2023-01-19T05:48:35.814Z,1.89
2023-01-19T05:51:05.798Z,1.85
2023-01-19T05:53:36.118Z,1.80
2023-01-19T05:56:07.662Z,1.78
2023-01-19T05:58:38.525Z,1.77
2023-01-19T06:01:09.469Z,1.77
2023-01-19T06:03:39.937Z,1.74
2023-01-19T06:06:09.419Z,1.72
2023-01-19T06:08:39.814Z,1.71
2023-01-19T06:11:09.719Z,1.69
2023-01-19T06:13:41.326Z,1.68
2023-01-19T06:16:11.767Z,1.68
2023-01-19T06:18:40.726Z,1.65
2023-01-19T06:21:12.366Z,1.63
2023-01-19T06:23:42.815Z,1.57
2023-01-19T06:26:12.035Z,1.55
2023-01-19T06:28:40.902Z,1.58
2023-01-19T06:31:10.217Z,1.56
2023-01-19T06:33:39.092Z,1.53
2023-01-19T06:36:08.688Z,1.51
2023-01-19T06:38:37.576Z,1.48
2023-01-19T06:41:08.250Z,1.46
2023-01-19T06:43:36.955Z,1.41
2023-01-19T06:46:06.432Z,1.41
2023-01-19T06:48:35.422Z,1.40
2023-01-19T06:51:05.954Z,1.34
2023-01-19T06:53:35.015Z,1.40
2023-01-19T06:56:04.796Z,1.38
2023-01-19T06:58:35.903Z,1.37
2023-01-19T07:01:07.250Z,1.38
2023-01-19T07:03:38.041Z,1.39
2023-01-19T07:06:07.837Z,1.40
2023-01-19T07:08:37.614Z,1.37
2023-01-19T07:11:25.494Z,1.39
2023-01-19T07:13:58.209Z,1.40
2023-01-19T07:16:27.459Z,1.42
2023-01-19T07:18:56.468Z,1.43
2023-01-19T07:21:26.805Z,1.43
2023-01-19T07:23:57.318Z,1.44
2023-01-19T07:26:28.091Z,1.47
2023-01-19T07:28:58.215Z,1.45
2023-01-19T07:31:27.403Z,1.40
2023-01-19T07:33:56.597Z,1.38
2023-01-19T07:36:25.897Z,1.45
2023-01-19T07:38:54.817Z,1.48
2023-01-19T07:41:24.057Z,1.49
2023-01-19T07:43:53.185Z,1.48
2023-01-19T07:46:23.874Z,1.49
2023-01-19T07:48:52.851Z,1.51
2023-01-19T07:51:22.008Z,1.49
2023-01-19T07:53:52.046Z,1.52
2023-01-19T07:56:22.065Z,1.57
2023-01-19T07:58:52.567Z,1.58
2023-01-19T08:01:23.641Z,1.61
2023-01-19T08:03:52.913Z,1.64
2023-01-19T08:06:24.568Z,1.64
2023-01-19T08:08:53.620Z,1.65
2023-01-19T08:11:22.816Z,1.64
2023-01-19T08:13:51.838Z,1.62
2023-01-19T08:16:22.444Z,1.65
2023-01-19T08:18:51.617Z,1.70
2023-01-19T08:21:20.885Z,1.68
2023-01-19T08:23:54.981Z,1.62
2023-01-19T08:26:29.815Z,1.62
2023-01-19T08:29:00.589Z,1.57
2023-01-19T08:31:32.450Z,1.60
2023-01-19T08:34:01.479Z,1.62
2023-01-19T08:36:30.620Z,1.62
2023-01-19T08:38:59.695Z,1.63
2023-01-19T08:41:28.914Z,1.68
2023-01-19T08:43:57.820Z,1.73
2023-01-19T08:46:27.371Z,1.72
2023-01-19T08:48:57.751Z,1.73
2023-01-19T08:51:26.964Z,1.74
2023-01-19T08:53:55.854Z,1.76
2023-01-19T08:56:25.176Z,1.77
2023-01-19T08:59:08.153Z,1.76
2023-01-19T09:01:39.491Z,1.79
2023-01-19T09:04:09.885Z,1.85
2023-01-19T09:06:39.165Z,1.83
2023-01-19T09:09:08.175Z,1.80
2023-01-19T09:11:37.472Z,1.87
2023-01-19T09:14:06.883Z,1.87
2023-01-19T09:16:36.210Z,1.90
2023-01-19T09:19:05.208Z,1.92
2023-01-19T09:21:35.752Z,1.96
2023-01-19T09:24:04.854Z,1.96
2023-01-19T09:26:34.043Z,2.00
2023-01-19T09:29:03.343Z,2.02
2023-01-19T09:31:32.527Z,2.03
2023-01-19T09:34:01.599Z,2.01
2023-01-19T09:36:32.475Z,2.02
2023-01-19T09:39:02.838Z,2.08
2023-01-19T09:41:36.364Z,2.12
2023-01-19T09:44:05.838Z,2.14
2023-01-19T09:46:39.866Z,2.17
2023-01-19T09:49:14.488Z,2.21
2023-01-19T09:51:47.803Z,2.26
2023-01-19T09:54:19.807Z,2.31
2023-01-19T09:56:52.748Z,2.37
2023-01-19T09:59:25.205Z,2.43
2023-01-19T10:02:14.850Z,2.53
2023-01-19T10:04:44.951Z,2.56
2023-01-19T10:07:17.294Z,2.64
2023-01-19T10:10:08.333Z,2.68
2023-01-19T10:12:51.047Z,2.75
2023-01-19T10:15:30.424Z,2.85
2023-01-19T10:18:12.306Z,2.97
2023-01-19T10:20:44.922Z,3.07
2023-01-19T10:23:26.206Z,3.13
2023-01-19T10:25:57.872Z,3.20
2023-01-19T10:28:29.258Z,3.28
2023-01-19T10:30:58.309Z,3.37
2023-01-19T10:33:27.717Z,3.46
2023-01-19T10:35:56.798Z,3.55
2023-01-19T10:38:28.961Z,3.63
2023-01-19T10:41:04.668Z,3.70
2023-01-19T10:43:42.119Z,3.74
2023-01-19T10:46:22.099Z,3.72
2023-01-19T10:48:54.368Z,3.74
2023-01-19T10:51:23.657Z,3.82
2023-01-19T10:54:01.976Z,3.87
2023-01-19T10:56:38.529Z,3.96
2023-01-19T10:59:08.815Z,4.06
2023-01-19T11:01:38.214Z,4.14
2023-01-19T11:04:29.583Z,4.21
2023-01-19T11:07:15.781Z,4.24
2023-01-19T11:09:45.380Z,4.40
2023-01-19T11:12:24.076Z,4.65
2023-01-19T11:14:54.184Z,5.01
2023-01-19T11:17:25.773Z,5.57
2023-01-19T11:19:58.238Z,6.25
2023-01-19T11:22:30.264Z,7.12
2023-01-19T11:25:01.023Z,8.18
2023-01-19T11:27:32.980Z,8.84
2023-01-19T11:30:10.360Z,9.69
2023-01-19T11:32:39.449Z,10.01
2023-01-19T11:35:33.003Z,9.74
2023-01-19T11:38:19.244Z,8.24
2023-01-19T11:40:57.120Z,7.48
2023-01-19T11:43:43.475Z,7.00
2023-01-19T11:46:17.763Z,6.64
2023-01-19T11:48:56.635Z,6.35
2023-01-19T11:51:29.046Z,6.02
2023-01-19T11:53:58.116Z,5.93
2023-01-19T11:56:29.740Z,5.89
2023-01-19T11:59:00.143Z,5.95
2023-01-19T12:01:33.185Z,5.91
2023-01-19T12:04:06.102Z,5.82
2023-01-19T12:06:39.500Z,5.66
2023-01-19T12:09:16.291Z,5.47
2023-01-19T12:11:49.232Z,5.51
2023-01-19T12:14:26.808Z,5.73
2023-01-19T12:17:01.031Z,5.97
2023-01-19T12:19:38.999Z,6.11
2023-01-19T12:22:12.476Z,6.27
2023-01-19T12:24:47.963Z,6.38
2023-01-19T12:27:26.447Z,6.34
2023-01-19T12:29:57.389Z,6.28
2023-01-19T12:32:36.803Z,6.39
2023-01-19T12:35:06.377Z,6.32
2023-01-19T12:37:41.532Z,6.32
2023-01-19T12:40:27.453Z,6.19
2023-01-19T12:43:01.508Z,6.21
2023-01-19T12:45:37.160Z,6.43
2023-01-19T12:48:11.744Z,6.54
2023-01-19T12:50:47.495Z,6.36
2023-01-19T12:53:21.394Z,6.34
2023-01-19T12:56:01.194Z,6.29
2023-01-19T12:58:31.908Z,6.17
2023-01-19T13:01:21.570Z,6.03
2023-01-19T13:04:30.770Z,5.89
2023-01-19T13:07:13.657Z,5.75
2023-01-19T13:09:43.326Z,5.64
2023-01-19T13:12:20.942Z,5.61
2023-01-19T13:14:50.968Z,5.46
2023-01-19T13:17:34.220Z,5.39
2023-01-19T13:20:24.005Z,5.20
2023-01-19T13:23:18.688Z,5.05
2023-01-19T13:25:54.624Z,4.89
2023-01-19T13:28:33.083Z,4.77
2023-01-19T13:31:05.063Z,4.71
2023-01-19T13:33:50.804Z,4.66
2023-01-19T13:36:28.738Z,4.57
2023-01-19T13:39:00.033Z,4.59
2023-01-19T13:41:32.535Z,4.57
2023-01-19T13:44:04.513Z,4.55
2023-01-19T13:46:34.659Z,4.50
2023-01-19T13:49:14.359Z,4.39
2023-01-19T13:51:43.731Z,4.36
2023-01-19T13:54:18.131Z,4.35
2023-01-19T13:56:51.193Z,4.30
2023-01-19T13:59:20.175Z,4.24
2023-01-19T14:01:51.057Z,4.19
2023-01-19T14:04:30.306Z,4.14
2023-01-19T14:07:02.132Z,4.17
2023-01-19T14:09:31.296Z,4.16
2023-01-19T14:12:11.700Z,4.17
2023-01-19T14:14:41.241Z,4.13
2023-01-19T14:17:28.228Z,4.13
2023-01-19T14:20:01.011Z,4.14
2023-01-19T14:22:42.326Z,4.13
2023-01-19T14:25:28.071Z,4.13
2023-01-19T14:28:27.729Z,4.07
2023-01-19T14:30:58.185Z,4.07
2023-01-19T14:33:37.888Z,4.06
2023-01-19T14:36:33.279Z,4.04
2023-01-19T14:39:03.499Z,4.02
2023-01-19T14:41:40.405Z,4.02
2023-01-19T14:44:11.084Z,3.94
2023-01-19T14:46:46.269Z,3.90
2023-01-19T14:49:21.290Z,3.92
2023-01-19T14:51:52.396Z,3.96
2023-01-19T14:54:30.621Z,3.97
2023-01-19T14:56:59.830Z,3.95
2023-01-19T14:59:29.025Z,3.91
2023-01-19T15:01:59.833Z,3.83
2023-01-19T15:04:29.436Z,3.77
2023-01-19T15:06:59.718Z,3.77
2023-01-19T15:09:29.140Z,3.82
2023-01-19T15:11:58.112Z,3.86
2023-01-19T15:14:27.922Z,3.91
2023-01-19T15:16:59.074Z,3.93
2023-01-19T15:19:28.367Z,3.92
2023-01-19T15:21:59.516Z,3.90
2023-01-19T15:24:43.855Z,3.90
2023-01-19T15:27:13.328Z,3.90
2023-01-19T15:29:42.713Z,3.88
2023-01-19T15:32:14.955Z,3.87
2023-01-19T15:34:44.282Z,3.83
2023-01-19T15:37:14.579Z,3.79
2023-01-19T15:39:43.870Z,3.75
2023-01-19T15:42:18.163Z,3.76
2023-01-19T15:44:47.639Z,3.74
2023-01-19T15:47:16.591Z,3.78
2023-01-19T15:49:47.540Z,3.82
2023-01-19T15:52:17.845Z,3.86
2023-01-19T15:54:47.152Z,3.89
2023-01-19T15:57:16.138Z,3.90
2023-01-19T15:59:45.363Z,3.87
2023-01-19T16:02:14.602Z,3.87
2023-01-19T16:04:44.086Z,3.89
2023-01-19T16:07:13.035Z,3.89
2023-01-19T16:09:44.424Z,3.92
2023-01-19T16:12:13.211Z,3.91
2023-01-19T16:14:42.779Z,3.90
2023-01-19T16:17:11.800Z,3.85
2023-01-19T16:19:40.988Z,3.76
2023-01-19T16:22:11.510Z,3.71
2023-01-19T16:24:40.889Z,3.69
2023-01-19T16:27:11.454Z,3.69
2023-01-19T16:29:40.772Z,3.70
2023-01-19T16:32:09.647Z,3.66
2023-01-19T16:34:38.909Z,3.60
2023-01-19T16:37:07.776Z,3.58
2023-01-19T16:39:37.278Z,3.56
2023-01-19T16:42:06.592Z,3.52
2023-01-19T16:44:37.141Z,3.49
2023-01-19T16:47:05.952Z,3.44
2023-01-19T16:49:35.227Z,3.43
2023-01-19T16:52:04.161Z,3.47
2023-01-19T16:54:33.590Z,3.46
2023-01-19T16:57:02.741Z,3.44
2023-01-19T16:59:32.031Z,3.40
2023-01-19T17:02:02.687Z,3.43
2023-01-19T17:04:31.989Z,3.40
2023-01-19T17:07:00.904Z,3.38
2023-01-19T17:09:30.319Z,3.39
2023-01-19T17:12:00.170Z,3.39
2023-01-19T17:14:29.413Z,3.38
2023-01-19T17:17:00.481Z,3.37
2023-01-19T17:19:31.144Z,3.39
2023-01-19T17:22:00.043Z,3.36
2023-01-19T17:24:29.275Z,3.35
2023-01-19T17:26:58.698Z,3.29
2023-01-19T17:29:27.966Z,3.30
2023-01-19T17:31:56.872Z,3.32
2023-01-19T17:34:26.059Z,3.36
2023-01-19T17:37:02.895Z,3.41
2023-01-19T17:39:32.703Z,3.44
2023-01-19T17:42:01.622Z,3.47
2023-01-19T17:44:30.970Z,3.47
2023-01-19T17:47:00.152Z,3.47
2023-01-19T17:49:29.524Z,3.48
2023-01-19T17:51:59.864Z,3.50
2023-01-19T17:54:29.191Z,3.53
2023-01-19T17:56:58.299Z,3.54
2023-01-19T17:59:27.684Z,3.57
2023-01-19T18:01:56.873Z,3.57
2023-01-19T18:04:26.111Z,3.59
2023-01-19T18:06:55.049Z,3.60
2023-01-19T18:09:25.573Z,3.60
2023-01-19T18:11:54.473Z,3.58
2023-01-19T18:14:23.728Z,3.57
2023-01-19T18:16:52.715Z,3.56
2023-01-19T18:19:23.032Z,3.50
2023-01-19T18:21:51.997Z,3.48
2023-01-19T18:24:21.276Z,3.46
2023-01-19T18:26:53.188Z,3.45
2023-01-19T18:29:23.655Z,3.46
2023-01-19T18:31:52.637Z,3.42
2023-01-19T18:34:22.055Z,3.41
2023-01-19T18:36:51.087Z,3.44
2023-01-19T18:39:20.432Z,3.45
2023-01-19T18:41:50.735Z,3.42
2023-01-19T18:44:19.982Z,3.39
2023-01-19T18:46:49.025Z,3.38
2023-01-19T18:49:18.411Z,3.37
2023-01-19T18:51:47.278Z,3.40
2023-01-19T18:54:17.496Z,3.31
2023-01-19T18:56:46.524Z,3.31
2023-01-19T18:59:17.236Z,3.31
2023-01-19T19:01:46.451Z,3.31
2023-01-19T19:04:15.790Z,3.29
2023-01-19T19:06:44.768Z,3.26
2023-01-19T19:09:14.025Z,3.28
2023-01-19T19:11:43.595Z,3.27
2023-01-19T19:14:12.966Z,3.21
2023-01-19T19:16:43.339Z,3.23
2023-01-19T19:19:15.372Z,3.26
2023-01-19T19:21:44.864Z,3.26
2023-01-19T19:24:14.269Z,3.27
2023-01-19T19:26:43.384Z,3.27
2023-01-19T19:29:13.035Z,3.29
2023-01-19T19:31:43.534Z,3.31
2023-01-19T19:34:14.605Z,3.34
2023-01-19T19:36:46.041Z,3.35
2023-01-19T19:39:15.691Z,3.35
2023-01-19T19:41:44.726Z,3.34
2023-01-19T19:44:13.981Z,3.35
2023-01-19T19:46:44.394Z,3.36
2023-01-19T19:49:13.691Z,3.36
2023-01-19T19:51:42.675Z,3.35
2023-01-19T19:54:11.951Z,3.35
2023-01-19T19:56:40.870Z,3.33
2023-01-19T19:59:10.777Z,3.33
2023-01-19T20:01:39.902Z,3.33
2023-01-19T20:04:12.774Z,3.34
2023-01-19T20:06:45.023Z,3.37
2023-01-19T20:09:15.976Z,3.35
2023-01-19T20:11:46.886Z,3.34
2023-01-19T20:14:17.252Z,3.33
2023-01-19T20:16:46.521Z,3.31
2023-01-19T20:19:18.152Z,3.33
2023-01-19T20:21:47.237Z,3.29
2023-01-19T20:24:18.483Z,3.31
2023-01-19T20:26:49.628Z,3.29
2023-01-19T20:29:20.565Z,3.29
2023-01-19T20:31:51.946Z,3.29
2023-01-19T20:34:26.725Z,3.27
2023-01-19T20:36:56.013Z,3.24
2023-01-19T20:39:26.354Z,3.26
2023-01-19T20:41:55.496Z,3.28
2023-01-19T20:44:27.132Z,3.31
2023-01-19T20:46:56.394Z,3.33
2023-01-19T20:49:27.154Z,3.31
2023-01-19T20:51:56.346Z,3.34
2023-01-19T20:54:28.364Z,3.33
2023-01-19T20:56:58.391Z,3.33
2023-01-19T20:59:28.138Z,3.33
2023-01-19T21:01:57.417Z,3.33
2023-01-19T21:04:28.469Z,3.35
2023-01-19T21:06:57.404Z,3.33
2023-01-19T21:09:26.631Z,3.29
2023-01-19T21:11:57.444Z,3.28
2023-01-19T21:14:26.954Z,3.29
2023-01-19T21:16:58.370Z,3.28
2023-01-19T21:19:29.204Z,3.28
2023-01-19T21:21:58.379Z,3.21
2023-01-19T21:24:29.393Z,3.19
2023-01-19T21:26:58.451Z,3.18
2023-01-19T21:29:27.665Z,3.19
2023-01-19T21:31:56.879Z,3.22
2023-01-19T21:34:26.352Z,3.21
2023-01-19T21:36:56.746Z,3.22
2023-01-19T21:39:26.049Z,3.15
2023-01-19T21:41:55.064Z,3.13
2023-01-19T21:44:24.376Z,3.09
2023-01-19T21:46:53.275Z,3.02
2023-01-19T21:49:22.829Z,3.03
2023-01-19T21:51:52.164Z,2.95
2023-01-19T21:54:23.111Z,2.88
2023-01-19T21:56:51.869Z,2.84
2023-01-19T21:59:21.122Z,2.85
2023-01-19T22:01:50.451Z,2.87
2023-01-19T22:04:19.805Z,2.84
2023-01-19T22:06:48.971Z,2.90
2023-01-19T22:09:18.194Z,2.92
2023-01-19T22:11:48.483Z,2.90
2023-01-19T22:14:17.731Z,2.86
2023-01-19T22:16:46.755Z,2.85
2023-01-19T22:19:16.131Z,2.84
2023-01-19T22:21:45.003Z,2.78
2023-01-19T22:24:14.321Z,2.67
2023-01-19T22:26:43.167Z,2.66
2023-01-19T22:29:13.807Z,2.66
2023-01-19T22:31:43.210Z,2.68
2023-01-19T22:34:13.516Z,2.63
2023-01-19T22:36:42.589Z,2.56
2023-01-19T22:39:13.569Z,2.50
2023-01-19T22:41:44.354Z,2.43
2023-01-19T22:44:17.335Z,2.46
2023-01-19T22:46:46.828Z,2.51
2023-01-19T22:49:17.990Z,2.55
2023-01-19T22:51:47.409Z,2.58
2023-01-19T22:54:16.704Z,2.59
2023-01-19T22:56:45.816Z,2.60
2023-01-19T22:59:16.405Z,2.56
2023-01-19T23:01:45.739Z,2.51
2023-01-19T23:04:16.453Z,2.42
2023-01-19T23:06:46.954Z,2.31
2023-01-19T23:09:16.654Z,2.32
2023-01-19T23:11:50.176Z,2.34
2023-01-19T23:14:22.855Z,2.39
2023-01-19T23:16:51.876Z,2.39
2023-01-19T23:19:21.533Z,2.41
2023-01-19T23:21:53.112Z,2.40
2023-01-19T23:24:22.372Z,2.40
2023-01-19T23:26:51.446Z,2.40
2023-01-19T23:29:22.143Z,2.40
2023-01-19T23:31:50.926Z,2.38
2023-01-19T23:34:20.137Z,2.38
2023-01-19T23:36:49.161Z,2.37
2023-01-19T23:39:20.632Z,2.35
2023-01-19T23:41:50.413Z,2.31
2023-01-19T23:44:21.090Z,2.31
2023-01-19T23:46:50.087Z,2.26
2023-01-19T23:49:19.291Z,2.22
2023-01-19T23:51:48.225Z,2.22
2023-01-19T23:54:17.499Z,2.22
2023-01-19T23:56:46.445Z,2.22
2023-01-19T23:59:17.256Z,2.20
